Time;durP1;ratioP1;P1;durP2;ratioP2;P2;SDS_P1;SDS_P2;PMS_P1;PMS_P2;Temp;Humidity;BMP_temperature;BMP_pressure;BME280_temperature;BME280_humidity;BME280_pressure;Samples;Min_cycle;Max_cycle;Signal;HPM_P1;HPM_P2
2022/10/10 00:01:10;;;;;;;5.53;1.75;;;;;;;12.34;57.17;100746.47;4486130;32;34776;-78
2022/10/10 00:03:38;;;;;;;2.78;1.70;;;;;;;12.51;57.11;100744.69;4499924;31;34876;-77
2022/10/10 00:06:06;;;;;;;2.17;1.70;;;;;;;12.61;54.94;100739.47;4501774;31;34849;-78
2022/10/10 00:08:34;;;;;;;2.50;1.60;;;;;;;12.36;55.96;100742.44;4501794;31;33247;-77
2022/10/10 00:11:03;;;;;;;2.40;1.77;;;;;;;12.56;55.78;100736.62;4501042;31;33559;-78
2022/10/10 00:13:31;;;;;;;2.85;1.73;;;;;;;12.63;55.63;100731.03;4501738;31;35160;-78
2022/10/10 00:15:58;;;;;;;4.40;1.92;;;;;;;12.26;57.36;100731.28;4501507;31;34696;-79
2022/10/10 00:18:26;;;;;;;4.62;2.08;;;;;;;12.40;56.08;100732.72;4486303;31;34199;-78
2022/10/10 00:20:53;;;;;;;2.80;1.70;;;;;;;12.28;57.77;100731.87;4486014;32;34002;-77
2022/10/10 00:23:21;;;;;;;3.28;1.77;;;;;;;12.36;58.13;100728.81;4485226;32;33346;-78
2022/10/10 00:25:49;;;;;;;3.83;2.28;;;;;;;12.27;56.42;100727.53;4492144;31;33924;-78
2022/10/10 00:28:17;;;;;;;2.42;1.83;;;;;;;12.18;54.94;100735.22;4501560;31;34273;-77
2022/10/10 00:30:44;;;;;;;2.00;1.52;;;;;;;12.08;56.07;100730.34;4501672;31;34732;-78
2022/10/10 00:33:12;;;;;;;2.95;1.73;;;;;;;12.32;54.84;100728.44;4501112;31;34295;-78
2022/10/10 00:35:40;;;;;;;2.15;1.65;;;;;;;12.37;54.77;100727.75;4487164;31;34004;-78
2022/10/10 00:38:08;;;;;;;3.03;1.77;;;;;;;12.27;53.70;100717.47;4501496;31;33500;-78
2022/10/10 00:40:44;;;;;;;2.70;2.05;;;;;;;12.02;55.42;100723.09;4500941;31;33975;-78
2022/10/10 00:43:12;;;;;;;2.35;1.60;;;;;;;12.31;55.86;100723.28;4501801;31;34252;-79
2022/10/10 00:45:41;;;;;;;2.28;1.40;;;;;;;12.27;55.18;100714.75;4501433;31;33768;-78
2022/10/10 00:48:14;;;;;;;2.45;1.65;;;;;;;12.09;55.01;100721.13;4501226;31;33503;-77
2022/10/10 00:50:56;;;;;;;2.35;1.80;;;;;;;12.19;55.96;100715.09;4501641;31;34891;-78
2022/10/10 00:53:27;;;;;;;1.80;1.58;;;;;;;12.15;54.42;100707.63;4487394;31;35014;-78
2022/10/10 00:55:55;;;;;;;2.30;1.50;;;;;;;12.18;54.88;100696.28;4501153;31;34049;-78
2022/10/10 00:58:23;;;;;;;2.70;1.62;;;;;;;11.60;55.49;100704.09;4487125;31;33412;-79
2022/10/10 01:00:50;;;;;;;2.87;1.60;;;;;;;12.11;54.63;100702.66;4501198;31;34151;-79
2022/10/10 01:03:18;;;;;;;2.42;1.62;;;;;;;12.24;53.47;100693.44;4486869;31;34290;-78
2022/10/10 01:05:46;;;;;;;2.08;1.52;;;;;;;11.62;54.88;100687.53;4501285;31;33810;-79
2022/10/10 01:08:15;;;;;;;3.95;2.03;;;;;;;11.65;53.71;100695.22;4487249;31;34122;-78
2022/10/10 01:11:02;;;;;;;2.33;1.90;;;;;;;12.06;52.05;100688.94;4501370;31;33703;-79
2022/10/10 01:13:49;;;;;;;2.53;1.40;;;;;;;12.09;51.55;100684.91;4487118;31;33999;-78
2022/10/10 01:16:19;;;;;;;4.95;1.70;;;;;;;11.63;52.76;100687.31;4500829;31;34080;-77
2022/10/10 01:18:59;;;;;;;2.35;1.42;;;;;;;11.57;54.69;100685.50;4501077;31;33512;-78
2022/10/10 01:21:36;;;;;;;1.92;1.40;;;;;;;11.75;52.97;100687.34;4501143;31;34081;-77
2022/10/10 01:24:25;;;;;;;2.20;1.48;;;;;;;12.34;50.89;100692.84;4500857;31;33818;-76
2022/10/10 01:27:05;;;;;;;2.60;1.70;;;;;;;12.16;51.03;100685.66;4485060;32;35058;-78
2022/10/10 01:29:56;;;;;;;1.80;1.45;;;;;;;11.90;52.26;100692.38;4484312;32;34509;-78
2022/10/10 01:32:45;;;;;;;2.60;1.77;;;;;;;12.14;51.35;100684.19;4471189;32;34077;-77
2022/10/10 01:35:43;;;;;;;3.40;1.58;;;;;;;12.21;50.75;100682.22;4470845;32;34234;-77
2022/10/10 01:38:23;;;;;;;1.75;1.23;;;;;;;11.80;52.29;100675.75;4485075;32;34063;-77
2022/10/10 01:41:05;;;;;;;1.85;1.37;;;;;;;12.08;51.48;100673.22;4485959;31;34237;-77
2022/10/10 01:43:34;;;;;;;2.78;1.50;;;;;;;11.87;51.98;100679.19;4470992;32;33923;-77
2022/10/10 01:46:14;;;;;;;2.00;1.42;;;;;;;12.13;51.49;100677.94;4485319;32;33882;-78
2022/10/10 01:48:43;;;;;;;2.67;1.40;;;;;;;11.73;52.44;100677.75;4484938;32;33925;-77
2022/10/10 01:51:49;;;;;;;4.18;1.45;;;;;;;12.04;51.99;100674.75;4471127;32;33997;-78
2022/10/10 01:54:36;;;;;;;2.40;1.50;;;;;;;12.04;52.02;100676.66;4470859;32;34024;-78
2022/10/10 01:57:21;;;;;;;1.83;1.30;;;;;;;12.08;52.24;100677.84;4470672;32;34188;-77
2022/10/10 01:59:59;;;;;;;1.62;1.37;;;;;;;11.86;52.35;100683.81;4471014;32;33811;-77
2022/10/10 02:02:38;;;;;;;2.25;1.30;;;;;;;12.16;52.09;100682.06;4485106;32;34327;-78
2022/10/10 02:05:32;;;;;;;2.42;1.60;;;;;;;11.64;54.22;100682.69;4485294;32;33983;-77
2022/10/10 02:08:07;;;;;;;2.20;1.62;;;;;;;11.52;53.52;100681.84;4478206;32;35025;-77
2022/10/10 02:10:42;;;;;;;1.73;1.33;;;;;;;12.05;51.77;100678.28;4474425;31;34065;-77
2022/10/10 02:13:10;;;;;;;2.65;1.60;;;;;;;11.67;52.74;100668.66;4486304;31;33442;-78
2022/10/10 02:15:47;;;;;;;1.62;1.37;;;;;;;11.81;52.41;100669.25;4486494;31;34880;-77
2022/10/10 02:18:15;;;;;;;2.87;1.77;;;;;;;11.80;52.78;100684.75;4485825;31;34317;-77
2022/10/10 02:20:44;;;;;;;1.90;1.50;;;;;;;12.18;51.52;100678.09;4486449;31;34257;-79
2022/10/10 02:23:15;;;;;;;1.70;1.30;;;;;;;12.16;51.81;100680.22;4500667;31;34519;-78
2022/10/10 02:25:43;;;;;;;2.67;1.73;;;;;;;11.97;52.18;100676.75;4475270;32;34738;-78
2022/10/10 02:28:16;;;;;;;3.15;1.85;;;;;;;11.92;52.38;100670.34;4470424;32;34209;-77
2022/10/10 02:30:45;;;;;;;2.17;1.50;;;;;;;12.10;51.46;100673.81;4470275;32;33947;-79
2022/10/10 02:33:18;;;;;;;2.15;1.85;;;;;;;11.92;51.81;100679.34;4484635;32;33575;-77
2022/10/10 02:35:48;;;;;;;3.30;1.55;;;;;;;11.43;53.32;100681.34;4484504;32;34828;-77
2022/10/10 02:38:16;;;;;;;1.90;1.60;;;;;;;11.72;52.90;100682.34;4470295;32;34140;-77
2022/10/10 02:40:44;;;;;;;2.25;1.73;;;;;;;11.43;53.55;100678.63;4486432;31;33975;-76
2022/10/10 02:43:13;;;;;;;2.85;1.50;;;;;;;11.85;52.16;100682.13;4486247;31;33209;-77
2022/10/10 02:45:41;;;;;;;2.35;1.62;;;;;;;11.65;52.83;100684.37;4485860;31;34815;-77
2022/10/10 02:48:08;;;;;;;2.60;1.67;;;;;;;11.61;53.13;100675.84;4502224;31;34209;-77
2022/10/10 02:50:36;;;;;;;2.72;1.60;;;;;;;11.70;52.56;100679.91;4502484;31;34669;-78
2022/10/10 02:53:04;;;;;;;3.62;1.60;;;;;;;11.81;52.15;100680.13;4488170;31;33461;-78
2022/10/10 02:55:31;;;;;;;1.80;1.50;;;;;;;11.66;52.90;100678.69;4501789;31;34086;-76
2022/10/10 02:57:58;;;;;;;2.97;1.60;;;;;;;11.64;52.97;100679.97;4502301;31;35124;-77
2022/10/10 03:00:26;;;;;;;2.03;1.35;;;;;;;11.44;53.54;100661.25;4501043;31;34120;-76
2022/10/10 03:02:53;;;;;;;2.85;1.40;;;;;;;11.31;54.29;100669.59;4501723;31;33058;-77
2022/10/10 03:05:21;;;;;;;4.03;1.80;;;;;;;11.68;52.77;100667.56;4501999;31;33836;-77
2022/10/10 03:07:49;;;;;;;4.00;1.70;;;;;;;11.27;53.62;100667.37;4501261;31;34098;-78
2022/10/10 03:10:16;;;;;;;3.62;1.83;;;;;;;11.71;52.96;100669.84;4487557;31;35042;-77
2022/10/10 03:12:43;;;;;;;5.65;1.60;;;;;;;11.49;53.80;100670.38;4501158;31;33533;-78
2022/10/10 03:15:11;;;;;;;2.87;1.73;;;;;;;11.92;52.06;100668.47;4501176;31;34809;-77
2022/10/10 03:17:38;;;;;;;2.83;1.62;;;;;;;12.05;51.57;100673.69;4501614;31;34336;-77
2022/10/10 03:20:07;;;;;;;2.80;1.60;;;;;;;11.71;52.66;100678.00;4502043;31;33542;-77
2022/10/10 03:22:34;;;;;;;3.65;1.70;;;;;;;11.55;53.47;100665.06;4486746;31;33326;-77
2022/10/10 03:25:02;;;;;;;2.25;1.67;;;;;;;11.89;52.35;100660.78;4485844;31;34614;-76
2022/10/10 03:27:30;;;;;;;1.98;1.50;;;;;;;11.43;53.84;100668.59;4486330;32;34205;-78
2022/10/10 03:29:57;;;;;;;2.47;1.58;;;;;;;11.67;53.23;100661.31;4486220;32;34057;-78
2022/10/10 03:32:25;;;;;;;3.90;1.42;;;;;;;11.99;52.16;100663.75;4500059;31;33507;-77
2022/10/10 03:34:52;;;;;;;2.75;1.70;;;;;;;11.53;53.75;100668.00;4501427;31;34110;-78
2022/10/10 03:37:20;;;;;;;2.85;1.80;;;;;;;11.59;53.75;100668.97;4501594;31;35025;-79
2022/10/10 03:39:47;;;;;;;2.30;1.52;;;;;;;11.62;53.52;100663.06;4501097;31;34275;-78
2022/10/10 03:42:15;;;;;;;2.90;1.50;;;;;;;11.40;54.92;100668.22;4500223;31;34176;-78
2022/10/10 03:44:42;;;;;;;2.97;1.87;;;;;;;11.61;53.16;100669.56;4500760;31;34627;-78
2022/10/10 03:47:10;;;;;;;1.50;1.40;;;;;;;11.77;53.07;100668.91;4501673;31;33983;-78
2022/10/10 03:49:37;;;;;;;2.47;1.55;;;;;;;12.09;51.89;100664.00;4501736;31;33968;-78
2022/10/10 03:52:05;;;;;;;3.20;2.00;;;;;;;11.77;52.65;100660.75;4502132;31;34144;-79
2022/10/10 03:54:32;;;;;;;2.22;1.65;;;;;;;11.69;53.16;100661.09;4501023;31;34381;-77
2022/10/10 03:56:59;;;;;;;3.17;1.80;;;;;;;11.55;53.43;100668.59;4500185;31;33856;-77
2022/10/10 03:59:27;;;;;;;2.25;1.70;;;;;;;11.59;53.49;100660.81;4499532;31;33933;-72
2022/10/10 04:01:54;;;;;;;1.60;1.30;;;;;;;11.50;53.79;100665.78;4498890;31;33286;-79
2022/10/10 04:04:22;;;;;;;2.45;1.83;;;;;;;11.53;53.94;100670.72;4499328;31;33012;-76
2022/10/10 04:06:49;;;;;;;3.00;1.80;;;;;;;11.74;53.21;100663.91;4500534;31;33888;-76
2022/10/10 04:09:17;;;;;;;3.03;2.03;;;;;;;11.85;52.60;100659.56;4501024;31;33981;-75
2022/10/10 04:11:44;;;;;;;2.85;1.87;;;;;;;11.83;52.73;100650.81;4500847;31;33267;-76
2022/10/10 04:14:12;;;;;;;3.75;1.90;;;;;;;11.52;53.73;100660.09;4500118;31;33660;-74
2022/10/10 04:16:39;;;;;;;2.17;1.73;;;;;;;11.54;54.12;100658.00;4499560;31;35073;-77
2022/10/10 04:19:07;;;;;;;2.60;1.67;;;;;;;11.77;53.00;100659.91;4500596;31;34403;-76
2022/10/10 04:21:34;;;;;;;2.05;1.52;;;;;;;11.69;53.17;100648.31;4500025;31;33375;-77
2022/10/10 04:24:02;;;;;;;4.75;1.90;;;;;;;11.93;52.75;100655.72;4498338;31;35436;-77
2022/10/10 04:26:30;;;;;;;3.65;2.03;;;;;;;11.93;52.76;100661.16;4500230;31;34159;-76
2022/10/10 04:28:57;;;;;;;2.03;1.50;;;;;;;11.73;53.69;100656.00;4500059;31;33649;-76
2022/10/10 04:31:25;;;;;;;4.05;1.62;;;;;;;11.70;53.45;100658.16;4498394;31;34220;-76
2022/10/10 04:33:52;;;;;;;3.17;2.00;;;;;;;11.58;53.98;100654.56;4500105;31;34065;-76
2022/10/10 04:36:20;;;;;;;2.37;1.70;;;;;;;12.00;52.53;100654.53;4485489;31;34802;-76
2022/10/10 04:38:49;;;;;;;2.28;1.73;;;;;;;11.78;53.25;100650.69;4500160;31;34070;-76
2022/10/10 04:41:17;;;;;;;2.87;1.90;;;;;;;11.73;53.50;100651.41;4500415;31;33251;-75
2022/10/10 04:43:44;;;;;;;3.97;1.90;;;;;;;11.61;53.81;100655.97;4501285;31;34904;-79
2022/10/10 04:46:11;;;;;;;2.55;1.60;;;;;;;11.48;54.27;100665.16;4492754;31;34165;-77
2022/10/10 04:48:39;;;;;;;2.35;1.70;;;;;;;11.53;54.08;100661.75;4497496;31;34016;-78
2022/10/10 04:51:08;;;;;;;2.33;1.65;;;;;;;11.65;53.88;100660.72;4500611;31;33323;-79
2022/10/10 04:53:35;;;;;;;2.25;1.55;;;;;;;11.59;54.04;100664.37;4486693;31;34683;-78
2022/10/10 04:56:03;;;;;;;3.95;1.85;;;;;;;11.33;54.90;100668.31;4499394;31;34282;-78
2022/10/10 04:58:30;;;;;;;3.15;2.00;;;;;;;11.65;53.89;100670.78;4500947;31;34549;-76
2022/10/10 05:00:58;;;;;;;2.95;1.73;;;;;;;11.59;53.96;100661.66;4501745;31;33533;-75
2022/10/10 05:03:25;;;;;;;4.82;2.00;;;;;;;11.42;54.62;100674.25;4501356;31;34918;-78
2022/10/10 05:05:53;;;;;;;3.30;1.80;;;;;;;11.55;54.09;100665.88;4501366;31;34273;-75
2022/10/10 05:08:20;;;;;;;2.30;1.77;;;;;;;11.53;54.37;100669.91;4501476;31;33964;-77
2022/10/10 05:10:51;;;;;;;2.90;1.70;;;;;;;11.80;53.40;100668.44;4500936;31;33562;-77
2022/10/10 05:13:18;;;;;;;2.95;1.80;;;;;;;11.48;54.24;100663.28;4487404;31;33664;-76
2022/10/10 05:15:49;;;;;;;2.40;1.77;;;;;;;11.69;53.78;100667.34;4501259;31;34251;-78
2022/10/10 05:18:17;;;;;;;3.58;1.90;;;;;;;11.75;53.54;100656.59;4501208;31;34646;-75
2022/10/10 05:20:46;;;;;;;2.55;1.75;;;;;;;11.60;54.08;100663.31;4501368;31;33105;-76
2022/10/10 05:23:14;;;;;;;3.60;2.00;;;;;;;11.92;53.18;100663.03;4501116;31;33959;-76
2022/10/10 05:25:43;;;;;;;3.12;1.95;;;;;;;11.65;54.24;100670.78;4486259;31;34180;-86
2022/10/10 05:28:11;;;;;;;2.72;2.08;;;;;;;11.25;55.20;100663.19;4482122;31;33717;-90
2022/10/10 05:30:38;;;;;;;3.80;2.28;;;;;;;11.54;54.53;100674.28;4500787;31;33634;-87
2022/10/10 05:33:06;;;;;;;3.62;1.90;;;;;;;11.61;53.97;100666.84;4500955;31;34127;-79
2022/10/10 05:35:33;;;;;;;2.47;1.65;;;;;;;11.38;55.19;100673.06;4500688;31;34219;-77
2022/10/10 05:38:01;;;;;;;5.32;1.83;;;;;;;11.56;54.67;100678.44;4499593;31;34122;-77
2022/10/10 05:40:28;;;;;;;3.45;2.15;;;;;;;11.65;54.10;100674.31;4500600;31;33601;-79
2022/10/10 05:42:57;;;;;;;2.97;1.73;;;;;;;11.94;53.32;100673.66;4486787;31;34189;-79
2022/10/10 05:45:24;;;;;;;3.03;1.75;;;;;;;12.07;52.79;100674.28;4501250;31;34276;-76
2022/10/10 05:47:52;;;;;;;2.97;1.80;;;;;;;12.05;52.74;100672.84;4491464;31;33747;-86
2022/10/10 05:50:28;;;;;;;4.30;2.00;;;;;;;11.54;54.61;100677.00;4500088;31;33447;-81
2022/10/10 05:52:56;;;;;;;3.28;1.80;;;;;;;11.83;53.46;100681.53;4500620;31;34847;-80
2022/10/10 05:55:24;;;;;;;4.93;1.98;;;;;;;11.54;54.80;100690.59;4486428;31;33641;-78
2022/10/10 05:57:51;;;;;;;4.35;2.12;;;;;;;11.62;54.61;100682.94;4500683;31;33888;-82
2022/10/10 06:00:19;;;;;;;3.03;2.05;;;;;;;11.72;53.84;100676.91;4500115;31;33508;-77
2022/10/10 06:02:47;;;;;;;3.53;2.10;;;;;;;12.00;53.56;100679.00;4500097;31;34099;-84
2022/10/10 06:05:14;;;;;;;3.17;1.98;;;;;;;12.26;52.93;100691.31;4500517;31;35205;-89
2022/10/10 06:07:42;;;;;;;2.85;1.67;;;;;;;12.65;51.53;100690.81;4500635;31;33730;-78
2022/10/10 06:10:33;;;;;;;3.35;1.80;;;;;;;12.59;52.27;100680.87;4499837;31;33266;-84
2022/10/10 06:13:01;;;;;;;3.58;1.87;;;;;;;13.42;50.15;100685.00;4500450;31;33988;-85
2022/10/10 06:15:49;;;;;;;1.90;1.62;;;;;;;13.59;49.37;100682.31;4499962;31;34865;-81
2022/10/10 06:18:17;;;;;;;2.03;1.58;;;;;;;13.57;49.42;100678.19;4485772;31;33806;-78
2022/10/10 06:20:44;;;;;;;2.53;1.62;;;;;;;13.84;48.82;100681.09;4499714;31;33307;-74
2022/10/10 06:23:12;;;;;;;4.10;1.90;;;;;;;14.10;48.03;100682.31;4492333;31;33717;-86
2022/10/10 06:25:39;;;;;;;2.80;1.60;;;;;;;14.11;48.13;100678.53;4486180;31;34313;-77
2022/10/10 06:28:09;;;;;;;3.42;1.98;;;;;;;13.99;47.89;100686.78;4492265;31;33793;-71
2022/10/10 06:30:41;;;;;;;2.47;1.80;;;;;;;13.99;49.23;100681.34;4486153;32;33476;-73
2022/10/10 06:33:10;;;;;;;2.78;1.75;;;;;;;13.67;49.20;100684.66;4486828;31;34505;-73
2022/10/10 06:35:40;;;;;;;3.28;2.00;;;;;;;13.67;49.05;100676.47;4487498;31;34209;-74
2022/10/10 06:38:08;;;;;;;4.53;2.10;;;;;;;13.74;49.54;100682.59;4502161;31;33731;-72
2022/10/10 06:40:38;;;;;;;3.87;2.08;;;;;;;13.81;48.84;100676.12;4501569;31;34474;-71
2022/10/10 06:43:10;;;;;;;2.95;1.70;;;;;;;14.01;48.71;100687.38;4501139;31;34944;-70
2022/10/10 06:45:40;;;;;;;4.32;1.80;;;;;;;14.05;48.01;100677.63;4486411;32;35153;-70
2022/10/10 06:48:08;;;;;;;4.07;1.87;;;;;;;14.11;48.70;100682.06;4488865;31;33974;-70
2022/10/10 06:50:36;;;;;;;3.05;2.10;;;;;;;14.25;47.93;100682.56;4480731;32;33073;-72
2022/10/10 06:53:04;;;;;;;2.92;1.87;;;;;;;14.62;47.22;100692.09;4486210;32;33624;-71
2022/10/10 06:55:31;;;;;;;2.50;1.90;;;;;;;14.29;47.27;100685.63;4486149;32;35189;-72
2022/10/10 06:57:59;;;;;;;5.15;2.08;;;;;;;13.40;49.85;100681.69;4494076;31;34772;-70
2022/10/10 07:00:26;;;;;;;3.70;2.20;;;;;;;13.86;48.74;100681.66;4501892;31;33560;-72
2022/10/10 07:02:54;;;;;;;3.15;1.90;;;;;;;13.63;49.06;100677.19;4501583;31;34673;-68
2022/10/10 07:05:21;;;;;;;3.40;2.20;;;;;;;13.38;50.63;100683.03;4501579;31;34075;-70
2022/10/10 07:07:50;;;;;;;2.95;1.95;;;;;;;13.50;50.23;100673.72;4501540;31;34021;-72
2022/10/10 07:10:18;;;;;;;3.65;2.22;;;;;;;13.63;49.33;100680.75;4502175;31;34268;-73
2022/10/10 07:12:45;;;;;;;5.10;2.30;;;;;;;13.82;49.27;100681.34;4502132;31;33864;-72
2022/10/10 07:15:13;;;;;;;4.18;1.95;;;;;;;13.56;50.32;100680.06;4500279;31;34199;-71
2022/10/10 07:17:40;;;;;;;2.92;1.95;;;;;;;13.92;49.20;100683.41;4500996;31;33258;-72
2022/10/10 07:20:08;;;;;;;3.47;1.90;;;;;;;14.05;48.61;100683.06;4502029;31;33227;-73
2022/10/10 07:22:35;;;;;;;3.12;1.85;;;;;;;13.91;48.87;100687.22;4501793;31;34759;-75
2022/10/10 07:25:03;;;;;;;3.53;1.80;;;;;;;13.88;49.09;100687.72;4501193;31;35019;-73
2022/10/10 07:27:31;;;;;;;3.17;1.90;;;;;;;13.96;49.12;100687.31;4501234;31;34598;-72
2022/10/10 07:29:58;;;;;;;4.87;2.00;;;;;;;13.92;50.06;100686.97;4501609;31;33550;-72
2022/10/10 07:32:26;;;;;;;2.83;1.62;;;;;;;14.00;48.53;100696.66;4501064;31;34908;-70
2022/10/10 07:34:53;;;;;;;4.55;1.80;;;;;;;14.12;48.01;100685.63;4501750;31;35093;-72
2022/10/10 07:37:21;;;;;;;3.95;1.95;;;;;;;14.28;48.27;100695.72;4500841;31;33707;-73
2022/10/10 07:39:51;;;;;;;3.62;1.77;;;;;;;14.64;47.61;100693.50;4501837;31;34272;-72
2022/10/10 07:42:18;;;;;;;2.97;1.62;;;;;;;14.93;47.82;100687.87;4501716;31;33942;-73
2022/10/10 07:44:46;;;;;;;4.12;2.28;;;;;;;14.59;47.58;100687.16;4487328;31;33987;-75
2022/10/10 07:47:13;;;;;;;2.78;1.80;;;;;;;14.63;47.08;100683.66;4501076;31;33915;-75
2022/10/10 07:49:41;;;;;;;3.78;2.08;;;;;;;14.28;48.33;100690.25;4501489;31;33506;-73
2022/10/10 07:52:08;;;;;;;4.28;2.10;;;;;;;14.31;47.33;100684.28;4501855;31;34092;-71
2022/10/10 07:54:36;;;;;;;2.70;2.03;;;;;;;14.58;47.31;100683.63;4501696;31;34071;-70
2022/10/10 07:57:04;;;;;;;4.15;2.20;;;;;;;14.51;46.70;100678.31;4500412;31;34006;-74
2022/10/10 07:59:31;;;;;;;5.25;2.10;;;;;;;14.72;47.66;100689.53;4501484;31;33568;-74
2022/10/10 08:01:59;;;;;;;4.55;2.17;;;;;;;14.92;46.90;100683.47;4501234;31;34785;-72
2022/10/10 08:04:26;;;;;;;4.65;2.42;;;;;;;14.92;46.74;100681.59;4501116;31;34980;-72
2022/10/10 08:06:54;;;;;;;3.05;2.00;;;;;;;15.00;47.05;100672.09;4501100;31;34024;-76
2022/10/10 08:09:21;;;;;;;6.68;2.20;;;;;;;14.86;48.31;100682.62;4501379;31;34384;-73
2022/10/10 08:11:49;;;;;;;3.83;2.30;;;;;;;15.54;46.00;100683.06;4501566;31;34022;-76
2022/10/10 08:14:16;;;;;;;5.25;2.35;;;;;;;15.31;46.57;100681.50;4501340;31;34183;-77
2022/10/10 08:16:43;;;;;;;5.85;2.22;;;;;;;15.45;45.03;100683.81;4501343;31;34708;-77
2022/10/10 08:19:11;;;;;;;5.30;2.10;;;;;;;15.18;46.76;100677.25;4501043;31;33605;-73
2022/10/10 08:21:39;;;;;;;3.60;2.40;;;;;;;15.20;46.72;100676.97;4501411;31;33832;-76
2022/10/10 08:24:07;;;;;;;4.43;1.80;;;;;;;15.23;46.06;100681.94;4501553;31;34180;-78
2022/10/10 08:26:34;;;;;;;2.75;1.90;;;;;;;15.44;45.51;100671.19;4501252;31;33754;-80
2022/10/10 08:29:02;;;;;;;3.60;1.60;;;;;;;15.10;46.34;100674.16;4500918;31;33271;-75
2022/10/10 08:31:29;;;;;;;3.10;1.80;;;;;;;15.06;45.88;100668.34;4501290;31;34138;-79
2022/10/10 08:33:57;;;;;;;3.62;1.60;;;;;;;15.11;44.06;100671.13;4500978;31;35127;-73
2022/10/10 08:36:26;;;;;;;2.15;1.40;;;;;;;15.10;44.47;100665.94;4501080;31;34298;-77
2022/10/10 08:38:56;;;;;;;2.45;1.55;;;;;;;15.43;43.59;100664.09;4501223;31;33448;-76
2022/10/10 08:41:49;;;;;;;2.15;1.50;;;;;;;15.39;43.45;100661.84;4500967;31;33841;-74
2022/10/10 08:44:40;;;;;;;1.55;1.27;;;;;;;15.55;42.74;100671.06;4486453;31;34267;-77
2022/10/10 08:47:20;;;;;;;4.22;1.73;;;;;;;15.27;44.73;100657.63;4486573;31;34691;-78
2022/10/10 08:50:14;;;;;;;2.03;1.40;;;;;;;15.16;43.77;100654.81;4473905;31;34438;-78
2022/10/10 08:52:54;;;;;;;2.15;1.25;;;;;;;15.37;43.33;100649.53;4477845;31;34707;-75
2022/10/10 08:55:45;;;;;;;3.10;1.35;;;;;;;15.69;42.43;100651.47;4501172;31;33889;-75
2022/10/10 08:58:20;;;;;;;3.22;1.30;;;;;;;15.88;41.46;100644.53;4501059;31;34225;-75
2022/10/10 09:00:53;;;;;;;3.25;1.48;;;;;;;16.21;41.83;100642.56;4487341;31;33748;-77
2022/10/10 09:03:34;;;;;;;5.07;1.30;;;;;;;16.69;41.21;100654.31;4486402;31;34014;-76
2022/10/10 09:06:29;;;;;;;2.92;1.33;;;;;;;16.42;41.86;100642.69;4501032;31;35196;-79
2022/10/10 09:09:09;;;;;;;2.37;1.30;;;;;;;16.30;41.59;100642.91;4500789;31;33696;-75
2022/10/10 09:11:48;;;;;;;2.90;1.58;;;;;;;16.34;41.62;100638.53;4498996;31;34152;-72
2022/10/10 09:14:25;;;;;;;1.73;1.23;;;;;;;16.67;40.15;100637.31;4500951;31;35040;-71
2022/10/10 09:16:59;;;;;;;2.55;1.50;;;;;;;16.67;39.98;100641.97;4486143;31;34174;-72
2022/10/10 09:19:49;;;;;;;2.40;1.60;;;;;;;16.76;40.42;100638.47;4486475;31;34549;-77
2022/10/10 09:22:25;;;;;;;1.50;1.20;;;;;;;16.62;40.03;100653.75;4501288;31;33395;-74
2022/10/10 09:25:03;;;;;;;1.65;1.02;;;;;;;16.10;43.14;100635.38;4486757;31;34042;-74
2022/10/10 09:27:36;;;;;;;3.33;1.42;;;;;;;16.37;41.21;100636.09;4486562;31;35053;-72
2022/10/10 09:30:08;;;;;;;1.62;1.30;;;;;;;16.79;39.55;100626.16;4486457;31;33847;-74
2022/10/10 09:32:39;;;;;;;3.60;1.35;;;;;;;16.25;42.23;100629.19;4486311;31;33255;-72
2022/10/10 09:35:22;;;;;;;2.15;1.27;;;;;;;17.13;41.09;100634.78;4500708;31;34857;-73
2022/10/10 09:37:54;;;;;;;4.62;2.03;;;;;;;16.95;39.97;100638.84;4486575;31;35115;-77
2022/10/10 09:40:29;;;;;;;2.45;1.40;;;;;;;16.90;40.86;100633.34;4485521;31;33979;-75
2022/10/10 09:42:56;;;;;;;2.37;1.40;;;;;;;17.16;40.40;100636.16;4486698;31;33549;-71
2022/10/10 09:45:28;;;;;;;2.55;1.27;;;;;;;17.33;39.57;100628.50;4486363;31;34056;-84
2022/10/10 09:47:56;;;;;;;2.42;1.40;;;;;;;17.30;38.02;100625.47;4485781;31;34945;-79
2022/10/10 09:50:23;;;;;;;2.28;1.58;;;;;;;17.18;39.17;100628.47;4500542;31;34869;-77
2022/10/10 09:52:52;;;;;;;2.28;1.52;;;;;;;17.02;39.27;100630.37;4486706;31;33789;-75
2022/10/10 09:55:30;;;;;;;1.77;1.65;;;;;;;17.42;38.23;100623.28;4500853;31;33963;-75
2022/10/10 09:58:03;;;;;;;3.12;1.50;;;;;;;17.19;39.44;100627.37;4486676;31;34170;-75
2022/10/10 10:00:35;;;;;;;3.00;1.50;;;;;;;17.28;38.36;100620.28;4486176;31;33923;-75
2022/10/10 10:03:04;;;;;;;2.30;1.33;;;;;;;17.25;38.10;100615.31;4500331;31;34291;-76
2022/10/10 10:05:31;;;;;;;4.12;1.40;;;;;;;17.31;38.54;100613.41;4486233;31;33839;-75
2022/10/10 10:08:00;;;;;;;1.90;1.35;;;;;;;17.86;37.42;100622.78;4500996;31;34163;-75
2022/10/10 10:10:29;;;;;;;3.30;1.83;;;;;;;17.68;37.74;100624.13;4500311;31;33853;-77
2022/10/10 10:12:56;;;;;;;3.10;1.40;;;;;;;17.82;38.03;100617.03;4500164;31;33548;-73
2022/10/10 10:15:28;;;;;;;2.08;1.27;;;;;;;17.96;37.35;100624.69;4500536;31;33732;-72
2022/10/10 10:18:24;;;;;;;2.47;1.60;;;;;;;17.79;37.32;100620.28;4485993;31;34268;-72
2022/10/10 10:20:57;;;;;;;;;;;;;;;17.96;35.06;100610.97;4500461;31;33976;-73
2022/10/10 10:23:33;;;;;;;4.00;1.60;;;;;;;17.94;34.34;100615.91;4500213;31;33425;-73
2022/10/10 10:26:27;;;;;;;2.85;1.10;;;;;;;17.89;35.38;100610.44;4500235;31;34853;-72
2022/10/10 10:28:59;;;;;;;2.55;1.20;;;;;;;17.85;36.73;100610.16;4485656;31;34135;-74
2022/10/10 10:31:37;;;;;;;2.65;1.67;;;;;;;18.06;36.48;100607.38;4497671;31;33650;-75
2022/10/10 10:34:24;;;;;;;3.12;1.83;;;;;;;18.15;35.83;100600.22;4500066;31;34023;-74
2022/10/10 10:37:03;;;;;;;1.55;1.12;;;;;;;18.10;35.86;100601.06;4485675;31;34788;-76
2022/10/10 10:39:50;;;;;;;1.98;1.40;;;;;;;18.50;35.50;100598.47;4500269;31;34290;-75
2022/10/10 10:42:44;;;;;;;2.03;1.37;;;;;;;18.57;36.01;100596.22;4499951;31;33909;-75
2022/10/10 10:45:38;;;;;;;3.05;1.35;;;;;;;18.44;36.44;100586.66;4486049;31;34465;-74
2022/10/10 10:48:44;;;;;;;1.45;1.30;;;;;;;18.68;34.92;100580.50;4464342;31;34047;-76
2022/10/10 10:51:18;;;;;;;2.97;1.62;;;;;;;18.60;35.15;100577.25;4499670;31;32924;-76
2022/10/10 10:54:01;;;;;;;2.75;1.50;;;;;;;18.64;34.15;100572.84;4500020;31;34055;-79
2022/10/10 10:56:39;;;;;;;1.60;1.20;;;;;;;17.97;36.67;100569.50;4499593;31;33569;-74
2022/10/10 10:59:11;;;;;;;1.67;1.23;;;;;;;18.35;35.79;100574.59;4485880;31;34066;-75
2022/10/10 11:02:16;;;;;;;3.37;1.50;;;;;;;18.64;35.28;100570.09;4498898;31;33961;-78
2022/10/10 11:05:33;;;;;;;1.62;1.20;;;;;;;18.94;34.49;100560.06;4499585;31;33754;-74
2022/10/10 11:08:36;;;;;;;4.00;1.70;;;;;;;18.76;33.76;100564.25;4501211;31;34301;-78
2022/10/10 11:11:32;;;;;;;2.25;1.33;;;;;;;19.11;32.36;100570.66;4501473;31;34077;-74
2022/10/10 11:14:08;;;;;;;2.47;1.30;;;;;;;19.02;33.13;100562.19;4501970;31;34157;-77
2022/10/10 11:16:44;;;;;;;4.70;1.10;;;;;;;19.00;33.05;100563.56;4486871;31;33984;-77
2022/10/10 11:19:37;;;;;;;2.10;1.40;;;;;;;19.24;33.15;100558.19;4490153;31;34104;-79
2022/10/10 11:22:07;;;;;;;2.35;1.40;;;;;;;19.53;32.93;100549.97;4501759;31;33984;-75
2022/10/10 11:24:44;;;;;;;1.77;1.20;;;;;;;19.60;32.24;100555.13;4487500;31;35102;-75
2022/10/10 11:27:19;;;;;;;1.75;1.08;;;;;;;19.34;34.46;100546.28;4501582;31;33811;-78
2022/10/10 11:29:58;;;;;;;3.00;1.50;;;;;;;20.20;31.08;100541.03;4487553;31;33581;-73
2022/10/10 11:32:31;;;;;;;3.50;1.30;;;;;;;19.36;32.27;100542.13;4487237;31;33845;-79
2022/10/10 11:35:07;;;;;;;1.65;1.35;;;;;;;19.37;31.61;100538.28;4487613;31;35040;-74
2022/10/10 11:37:40;;;;;;;2.85;1.20;;;;;;;19.60;31.80;100528.41;4487413;31;34874;-76
2022/10/10 11:40:22;;;;;;;2.90;1.52;;;;;;;19.82;31.46;100527.94;4487683;31;33435;-78
2022/10/10 11:42:55;;;;;;;1.77;1.08;;;;;;;19.47;32.54;100523.59;4487493;31;34891;-74
2022/10/10 11:45:27;;;;;;;1.75;1.30;;;;;;;19.30;32.41;100520.44;4501539;31;34972;-77
2022/10/10 11:48:36;;;;;;;1.27;1.17;;;;;;;20.18;31.30;100516.53;4487301;31;34038;-78